Itarana, Brazil
Current Conditions -  °F | °C
As of 5:00 AM on Saturday 29 Nov 2014 (Local Time) from SBVT Reporting Station
Light Rain Light Rain  
Wind Chill: 72°   Ceiling: 1200
Heat Index: 72°   Visibility: 2.5mi
Dew Point: 68°   Wind: 10mph
Humidity: 88%   Direction: 220°SW
Pressure: 29.94"   Gusts: NA
Location:  19.87°S, 40.88°W
Report Text: SBVT 290700Z 22009KT 4000 -RA SCT007 BKN012 OVC070 22/20 Q1014
Loading
Personal Weather Stations






























Interactive Weather Map New forecast layout! Learn more

10-Day Weather Forecast

Advertisements
Track Severe Weather on mobile